sensor_id;sensor_type;location;lat;lon;timestamp;pressure;altitude;pressure_sealevel;temperature;humidity
31331;BME280;34067;39.548;-76.088;2022-07-24T00:00:45;101571.48;;;35.46;38.37
31331;BME280;34067;39.548;-76.088;2022-07-24T00:03:13;101571.25;;;35.40;38.55
31331;BME280;34067;39.548;-76.088;2022-07-24T00:05:41;101573.10;;;35.92;38.92
31331;BME280;34067;39.548;-76.088;2022-07-24T00:08:09;101573.79;;;35.75;39.17
31331;BME280;34067;39.548;-76.088;2022-07-24T00:10:37;101575.31;;;35.15;39.52
31331;BME280;34067;39.548;-76.088;2022-07-24T00:13:04;101571.37;;;35.48;39.65
31331;BME280;34067;39.548;-76.088;2022-07-24T00:15:32;101573.10;;;35.22;39.96
31331;BME280;34067;39.548;-76.088;2022-07-24T00:18:00;101578.10;;;35.27;39.87
31331;BME280;34067;39.548;-76.088;2022-07-24T00:20:28;101582.26;;;34.74;40.64
31331;BME280;34067;39.548;-76.088;2022-07-24T00:22:56;101586.03;;;34.69;40.70
31331;BME280;34067;39.548;-76.088;2022-07-24T00:25:25;101584.82;;;34.89;41.06
31331;BME280;34067;39.548;-76.088;2022-07-24T00:27:52;101582.15;;;35.03;41.08
31331;BME280;34067;39.548;-76.088;2022-07-24T00:30:20;101583.88;;;35.06;41.04
31331;BME280;34067;39.548;-76.088;2022-07-24T00:32:48;101590.92;;;34.88;41.65
31331;BME280;34067;39.548;-76.088;2022-07-24T00:35:17;101595.53;;;34.55;42.21
31331;BME280;34067;39.548;-76.088;2022-07-24T00:37:44;101596.56;;;34.33;42.56
31331;BME280;34067;39.548;-76.088;2022-07-24T00:40:13;101593.03;;;34.43;42.13
31331;BME280;34067;39.548;-76.088;2022-07-24T00:42:41;101589.64;;;34.22;42.48
31331;BME280;34067;39.548;-76.088;2022-07-24T00:45:09;101583.44;;;33.87;43.00
31331;BME280;34067;39.548;-76.088;2022-07-24T00:47:38;101584.51;;;34.33;43.08
31331;BME280;34067;39.548;-76.088;2022-07-24T00:50:07;101600.49;;;34.03;43.63
31331;BME280;34067;39.548;-76.088;2022-07-24T00:52:35;101619.31;;;33.78;44.24
31331;BME280;34067;39.548;-76.088;2022-07-24T00:55:05;101630.20;;;33.48;44.88
31331;BME280;34067;39.548;-76.088;2022-07-24T00:57:33;101627.18;;;33.85;45.75
31331;BME280;34067;39.548;-76.088;2022-07-24T01:00:02;101625.97;;;33.82;45.38
31331;BME280;34067;39.548;-76.088;2022-07-24T01:02:30;101631.41;;;33.56;45.21
31331;BME280;34067;39.548;-76.088;2022-07-24T01:04:58;101643.69;;;33.40;46.86
31331;BME280;34067;39.548;-76.088;2022-07-24T01:07:25;101647.96;;;33.17;46.24
31331;BME280;34067;39.548;-76.088;2022-07-24T01:09:53;101647.91;;;32.98;47.91
31331;BME280;34067;39.548;-76.088;2022-07-24T01:12:22;101656.05;;;33.19;47.88
31331;BME280;34067;39.548;-76.088;2022-07-24T01:14:50;101657.84;;;32.19;49.89
31331;BME280;34067;39.548;-76.088;2022-07-24T01:17:18;101656.24;;;32.29;51.18
31331;BME280;34067;39.548;-76.088;2022-07-24T01:19:46;101664.95;;;30.69;50.75
31331;BME280;34067;39.548;-76.088;2022-07-24T01:22:15;101658.53;;;30.84;48.98
31331;BME280;34067;39.548;-76.088;2022-07-24T01:24:42;101648.59;;;30.38;49.13
31331;BME280;34067;39.548;-76.088;2022-07-24T01:27:11;101647.05;;;30.10;48.80
31331;BME280;34067;39.548;-76.088;2022-07-24T01:29:38;101653.22;;;30.77;48.40
31331;BME280;34067;39.548;-76.088;2022-07-24T01:32:06;101658.41;;;29.73;48.15
31331;BME280;34067;39.548;-76.088;2022-07-24T01:34:34;101657.24;;;29.58;48.44
31331;BME280;34067;39.548;-76.088;2022-07-24T01:37:02;101660.83;;;29.17;48.90
31331;BME280;34067;39.548;-76.088;2022-07-24T01:39:30;101667.52;;;29.04;48.61
31331;BME280;34067;39.548;-76.088;2022-07-24T01:41:59;101679.76;;;28.79;49.06
31331;BME280;34067;39.548;-76.088;2022-07-24T01:44:26;101679.51;;;29.22;49.31
31331;BME280;34067;39.548;-76.088;2022-07-24T01:46:54;101674.72;;;27.67;50.81
31331;BME280;34067;39.548;-76.088;2022-07-24T01:49:23;101674.22;;;28.33;49.58
31331;BME280;34067;39.548;-76.088;2022-07-24T01:51:50;101680.89;;;28.20;49.45
31331;BME280;34067;39.548;-76.088;2022-07-24T01:54:18;101689.13;;;27.38;50.04
31331;BME280;34067;39.548;-76.088;2022-07-24T01:56:46;101687.57;;;26.83;50.08
31331;BME280;34067;39.548;-76.088;2022-07-24T01:59:14;101688.45;;;27.78;49.55
31331;BME280;34067;39.548;-76.088;2022-07-24T02:01:41;101693.47;;;27.09;48.30
31331;BME280;34067;39.548;-76.088;2022-07-24T02:04:09;101697.08;;;26.97;48.73
31331;BME280;34067;39.548;-76.088;2022-07-24T02:06:37;101674.13;;;27.60;48.59
31331;BME280;34067;39.548;-76.088;2022-07-24T02:09:05;101673.37;;;27.19;48.05
31331;BME280;34067;39.548;-76.088;2022-07-24T02:11:34;101666.11;;;27.94;47.10
31331;BME280;34067;39.548;-76.088;2022-07-24T02:14:02;101673.63;;;27.38;48.07
31331;BME280;34067;39.548;-76.088;2022-07-24T02:16:30;101674.41;;;27.77;46.87
31331;BME280;34067;39.548;-76.088;2022-07-24T02:18:58;101682.49;;;27.72;46.16
31331;BME280;34067;39.548;-76.088;2022-07-24T02:21:26;101678.88;;;27.46;45.87
31331;BME280;34067;39.548;-76.088;2022-07-24T02:23:54;101674.69;;;28.60;44.38
31331;BME280;34067;39.548;-76.088;2022-07-24T02:26:22;101673.13;;;29.16;43.02
31331;BME280;34067;39.548;-76.088;2022-07-24T02:28:50;101665.97;;;29.26;42.21
31331;BME280;34067;39.548;-76.088;2022-07-24T02:31:17;101661.58;;;29.93;41.29
31331;BME280;34067;39.548;-76.088;2022-07-24T02:33:45;101657.95;;;30.05;41.60
31331;BME280;34067;39.548;-76.088;2022-07-24T02:36:13;101657.08;;;30.10;41.16
31331;BME280;34067;39.548;-76.088;2022-07-24T02:38:42;101651.49;;;30.12;40.55
31331;BME280;34067;39.548;-76.088;2022-07-24T02:41:10;101644.26;;;29.84;40.59
31331;BME280;34067;39.548;-76.088;2022-07-24T02:43:38;101634.53;;;30.81;39.91
31331;BME280;34067;39.548;-76.088;2022-07-24T02:46:05;101626.91;;;30.57;39.72
31331;BME280;34067;39.548;-76.088;2022-07-24T02:48:33;101621.66;;;30.53;39.12
31331;BME280;34067;39.548;-76.088;2022-07-24T02:51:01;101624.23;;;29.04;40.20
31331;BME280;34067;39.548;-76.088;2022-07-24T02:53:28;101619.35;;;29.99;39.55
31331;BME280;34067;39.548;-76.088;2022-07-24T02:55:56;101613.11;;;30.43;39.78
31331;BME280;34067;39.548;-76.088;2022-07-24T02:58:24;101609.99;;;29.82;39.02
31331;BME280;34067;39.548;-76.088;2022-07-24T03:00:52;101603.79;;;30.95;38.54
31331;BME280;34067;39.548;-76.088;2022-07-24T03:03:20;101593.71;;;31.05;38.46
31331;BME280;34067;39.548;-76.088;2022-07-24T03:05:48;101594.25;;;30.93;38.77
31331;BME280;34067;39.548;-76.088;2022-07-24T03:08:16;101590.53;;;31.16;38.30
31331;BME280;34067;39.548;-76.088;2022-07-24T03:10:44;101580.47;;;30.68;38.36
31331;BME280;34067;39.548;-76.088;2022-07-24T03:13:12;101581.52;;;30.96;38.58
31331;BME280;34067;39.548;-76.088;2022-07-24T03:15:40;101577.63;;;31.01;38.23
31331;BME280;34067;39.548;-76.088;2022-07-24T03:18:08;101566.97;;;31.16;38.20
31331;BME280;34067;39.548;-76.088;2022-07-24T03:20:37;101561.75;;;30.95;38.42
31331;BME280;34067;39.548;-76.088;2022-07-24T03:23:04;101564.12;;;31.22;38.20
31331;BME280;34067;39.548;-76.088;2022-07-24T03:25:32;101565.49;;;30.54;38.10
31331;BME280;34067;39.548;-76.088;2022-07-24T03:28:00;101556.37;;;30.65;38.01
31331;BME280;34067;39.548;-76.088;2022-07-24T03:30:27;101545.12;;;31.01;38.64
31331;BME280;34067;39.548;-76.088;2022-07-24T03:32:55;101544.85;;;30.84;38.48
31331;BME280;34067;39.548;-76.088;2022-07-24T03:35:23;101547.36;;;31.76;38.07
31331;BME280;34067;39.548;-76.088;2022-07-24T03:37:51;101549.24;;;31.29;38.03
31331;BME280;34067;39.548;-76.088;2022-07-24T03:40:18;101554.43;;;30.72;38.13
31331;BME280;34067;39.548;-76.088;2022-07-24T03:42:46;101566.55;;;30.76;38.59
31331;BME280;34067;39.548;-76.088;2022-07-24T03:45:14;101574.12;;;30.38;38.84
31331;BME280;34067;39.548;-76.088;2022-07-24T03:47:43;101579.06;;;31.01;39.92
31331;BME280;34067;39.548;-76.088;2022-07-24T03:50:10;101587.52;;;30.14;40.84
31331;BME280;34067;39.548;-76.088;2022-07-24T03:52:38;101598.72;;;29.39;42.38
31331;BME280;34067;39.548;-76.088;2022-07-24T03:55:07;101597.02;;;29.45;42.96
31331;BME280;34067;39.548;-76.088;2022-07-24T03:57:35;101588.83;;;29.54;42.48
31331;BME280;34067;39.548;-76.088;2022-07-24T04:00:05;101591.82;;;29.62;42.30
31331;BME280;34067;39.548;-76.088;2022-07-24T04:02:33;101591.50;;;29.56;42.04
31331;BME280;34067;39.548;-76.088;2022-07-24T04:05:01;101592.67;;;29.29;42.61
31331;BME280;34067;39.548;-76.088;2022-07-24T04:07:29;101596.11;;;29.80;42.07
31331;BME280;34067;39.548;-76.088;2022-07-24T04:09:57;101599.55;;;29.69;41.71
31331;BME280;34067;39.548;-76.088;2022-07-24T04:12:25;101594.16;;;28.44;42.46
31331;BME280;34067;39.548;-76.088;2022-07-24T04:14:54;101593.87;;;29.42;41.72
31331;BME280;34067;39.548;-76.088;2022-07-24T04:17:22;101600.90;;;29.12;42.20
31331;BME280;34067;39.548;-76.088;2022-07-24T04:19:50;101599.22;;;29.72;41.84
31331;BME280;34067;39.548;-76.088;2022-07-24T04:22:18;101598.96;;;28.45;42.60
31331;BME280;34067;39.548;-76.088;2022-07-24T04:24:46;101600.90;;;28.08;43.77
31331;BME280;34067;39.548;-76.088;2022-07-24T04:27:14;101598.10;;;29.12;42.67
31331;BME280;34067;39.548;-76.088;2022-07-24T04:29:42;101597.02;;;28.87;43.10
31331;BME280;34067;39.548;-76.088;2022-07-24T04:32:09;101595.55;;;29.48;42.63
31331;BME280;34067;39.548;-76.088;2022-07-24T04:34:37;101600.47;;;29.80;42.49
31331;BME280;34067;39.548;-76.088;2022-07-24T04:37:05;101606.19;;;29.71;42.66
31331;BME280;34067;39.548;-76.088;2022-07-24T04:39:33;101620.39;;;29.17;42.83
31331;BME280;34067;39.548;-76.088;2022-07-24T04:42:01;101625.12;;;29.28;43.65
31331;BME280;34067;39.548;-76.088;2022-07-24T04:44:28;101635.58;;;29.36;43.72
31331;BME280;34067;39.548;-76.088;2022-07-24T04:46:56;101637.75;;;28.60;44.71
31331;BME280;34067;39.548;-76.088;2022-07-24T04:49:25;101638.72;;;28.20;45.95
31331;BME280;34067;39.548;-76.088;2022-07-24T04:51:53;101627.98;;;28.43;45.94
31331;BME280;34067;39.548;-76.088;2022-07-24T04:54:21;101634.16;;;28.64;45.13
31331;BME280;34067;39.548;-76.088;2022-07-24T04:56:49;101639.86;;;29.27;45.57
31331;BME280;34067;39.548;-76.088;2022-07-24T04:59:18;101636.45;;;28.38;45.91
31331;BME280;34067;39.548;-76.088;2022-07-24T05:03:09;101623.96;;;28.11;45.67
31331;BME280;34067;39.548;-76.088;2022-07-24T05:05:37;101619.74;;;28.71;45.19
31331;BME280;34067;39.548;-76.088;2022-07-24T05:08:05;101619.74;;;28.65;44.50
31331;BME280;34067;39.548;-76.088;2022-07-24T05:10:33;101620.96;;;29.04;43.97
31331;BME280;34067;39.548;-76.088;2022-07-24T05:13:01;101622.62;;;29.07;43.93
31331;BME280;34067;39.548;-76.088;2022-07-24T05:15:29;101619.85;;;29.25;45.34
31331;BME280;34067;39.548;-76.088;2022-07-24T05:17:57;101615.73;;;29.36;45.05
31331;BME280;34067;39.548;-76.088;2022-07-24T05:20:25;101614.18;;;29.18;45.00
31331;BME280;34067;39.548;-76.088;2022-07-24T05:22:53;101615.84;;;29.17;44.64
31331;BME280;34067;39.548;-76.088;2022-07-24T05:25:22;101617.99;;;28.67;44.44
31331;BME280;34067;39.548;-76.088;2022-07-24T05:27:49;101610.86;;;28.91;44.09
31331;BME280;34067;39.548;-76.088;2022-07-24T05:30:17;101605.40;;;28.94;44.10
31331;BME280;34067;39.548;-76.088;2022-07-24T05:32:45;101600.96;;;28.90;44.09
31331;BME280;34067;39.548;-76.088;2022-07-24T05:35:13;101603.85;;;28.88;44.06
31331;BME280;34067;39.548;-76.088;2022-07-24T05:37:41;101607.59;;;28.93;43.93
31331;BME280;34067;39.548;-76.088;2022-07-24T05:40:10;101608.22;;;28.98;43.88
31331;BME280;34067;39.548;-76.088;2022-07-24T05:42:39;101611.91;;;28.62;44.35
31331;BME280;34067;39.548;-76.088;2022-07-24T05:45:07;101615.26;;;28.26;44.78
31331;BME280;34067;39.548;-76.088;2022-07-24T05:47:36;101617.74;;;28.32;44.69
31331;BME280;34067;39.548;-76.088;2022-07-24T05:50:07;101619.28;;;28.34;44.81
31331;BME280;34067;39.548;-76.088;2022-07-24T05:52:35;101622.56;;;29.01;44.58
31331;BME280;34067;39.548;-76.088;2022-07-24T05:55:04;101628.41;;;28.50;44.72
31331;BME280;34067;39.548;-76.088;2022-07-24T05:57:32;101627.36;;;28.50;44.57
31331;BME280;34067;39.548;-76.088;2022-07-24T06:00:01;101627.10;;;28.45;44.42
31331;BME280;34067;39.548;-76.088;2022-07-24T06:02:30;101625.92;;;28.50;44.38
31331;BME280;34067;39.548;-76.088;2022-07-24T06:04:57;101629.71;;;28.55;44.14
31331;BME280;34067;39.548;-76.088;2022-07-24T06:07:25;101630.29;;;28.44;44.27
31331;BME280;34067;39.548;-76.088;2022-07-24T06:09:53;101636.63;;;28.54;44.91
31331;BME280;34067;39.548;-76.088;2022-07-24T06:12:20;101646.35;;;28.39;44.66
31331;BME280;34067;39.548;-76.088;2022-07-24T06:14:48;101658.00;;;28.87;44.80
31331;BME280;34067;39.548;-76.088;2022-07-24T06:17:16;101661.26;;;28.75;46.45
31331;BME280;34067;39.548;-76.088;2022-07-24T06:19:44;101659.73;;;27.83;48.20
31331;BME280;34067;39.548;-76.088;2022-07-24T06:22:13;101659.32;;;28.40;48.13
31331;BME280;34067;39.548;-76.088;2022-07-24T06:24:40;101658.58;;;27.67;48.51
31331;BME280;34067;39.548;-76.088;2022-07-24T06:27:08;101661.12;;;28.12;47.72
31331;BME280;34067;39.548;-76.088;2022-07-24T06:29:36;101667.16;;;27.04;49.04
31331;BME280;34067;39.548;-76.088;2022-07-24T06:32:04;101660.64;;;27.26;48.76
31331;BME280;34067;39.548;-76.088;2022-07-24T06:34:32;101658.98;;;27.50;48.36
31331;BME280;34067;39.548;-76.088;2022-07-24T06:37:00;101663.23;;;27.60;47.81
31331;BME280;34067;39.548;-76.088;2022-07-24T06:39:28;101664.36;;;27.74;47.77
31331;BME280;34067;39.548;-76.088;2022-07-24T06:41:56;101667.83;;;27.76;48.18
31331;BME280;34067;39.548;-76.088;2022-07-24T06:44:23;101671.17;;;27.87;47.68
31331;BME280;34067;39.548;-76.088;2022-07-24T06:46:52;101675.79;;;27.41;48.61
31331;BME280;34067;39.548;-76.088;2022-07-24T06:49:19;101682.86;;;27.96;48.50
31331;BME280;34067;39.548;-76.088;2022-07-24T06:51:47;101684.44;;;27.97;48.85
31331;BME280;34067;39.548;-76.088;2022-07-24T06:54:15;101683.36;;;27.84;48.68
31331;BME280;34067;39.548;-76.088;2022-07-24T06:56:43;101680.44;;;27.81;50.29
31331;BME280;34067;39.548;-76.088;2022-07-24T06:59:11;101680.96;;;28.65;49.30
31331;BME280;34067;39.548;-76.088;2022-07-24T07:01:39;101675.13;;;27.75;48.28
31331;BME280;34067;39.548;-76.088;2022-07-24T07:04:08;101678.59;;;27.89;48.69
31331;BME280;34067;39.548;-76.088;2022-07-24T07:06:36;101678.28;;;28.19;48.29
31331;BME280;34067;39.548;-76.088;2022-07-24T07:09:03;101668.37;;;27.96;48.17
31331;BME280;34067;39.548;-76.088;2022-07-24T07:11:31;101662.82;;;27.94;47.96
31331;BME280;34067;39.548;-76.088;2022-07-24T07:13:59;101662.64;;;28.47;48.08
31331;BME280;34067;39.548;-76.088;2022-07-24T07:16:27;101661.58;;;28.46;48.10
31331;BME280;34067;39.548;-76.088;2022-07-24T07:18:54;101659.03;;;28.36;48.69
31331;BME280;34067;39.548;-76.088;2022-07-24T07:21:23;101658.48;;;28.38;48.15
31331;BME280;34067;39.548;-76.088;2022-07-24T07:23:51;101666.48;;;28.37;48.54
31331;BME280;34067;39.548;-76.088;2022-07-24T07:26:19;101659.97;;;28.38;48.72
31331;BME280;34067;39.548;-76.088;2022-07-24T07:28:47;101651.97;;;27.90;49.78
31331;BME280;34067;39.548;-76.088;2022-07-24T07:31:15;101654.48;;;28.13;49.74
31331;BME280;34067;39.548;-76.088;2022-07-24T07:33:42;101654.08;;;28.03;48.85
31331;BME280;34067;39.548;-76.088;2022-07-24T07:36:10;101646.18;;;28.11;48.38
31331;BME280;34067;39.548;-76.088;2022-07-24T07:38:38;101638.18;;;28.87;48.58
31331;BME280;34067;39.548;-76.088;2022-07-24T07:41:06;101637.04;;;28.67;48.10
31331;BME280;34067;39.548;-76.088;2022-07-24T07:43:34;101638.65;;;28.30;47.90
31331;BME280;34067;39.548;-76.088;2022-07-24T07:46:01;101632.24;;;28.22;48.84
31331;BME280;34067;39.548;-76.088;2022-07-24T07:48:29;101628.25;;;28.34;48.33
31331;BME280;34067;39.548;-76.088;2022-07-24T07:50:57;101622.51;;;28.20;48.90
31331;BME280;34067;39.548;-76.088;2022-07-24T07:53:25;101620.90;;;27.87;48.29
31331;BME280;34067;39.548;-76.088;2022-07-24T07:55:53;101622.84;;;27.17;48.99
31331;BME280;34067;39.548;-76.088;2022-07-24T07:58:21;101615.05;;;27.72;48.88
31331;BME280;34067;39.548;-76.088;2022-07-24T08:00:49;101612.21;;;27.35;48.92
31331;BME280;34067;39.548;-76.088;2022-07-24T08:03:16;101607.19;;;27.50;49.24
31331;BME280;34067;39.548;-76.088;2022-07-24T08:05:44;101596.60;;;27.59;49.17
31331;BME280;34067;39.548;-76.088;2022-07-24T08:08:12;101591.71;;;27.32;48.96
31331;BME280;34067;39.548;-76.088;2022-07-24T08:10:40;101592.43;;;27.42;48.89
31331;BME280;34067;39.548;-76.088;2022-07-24T08:13:08;101595.97;;;27.55;48.67
31331;BME280;34067;39.548;-76.088;2022-07-24T08:15:36;101599.10;;;27.47;48.90
31331;BME280;34067;39.548;-76.088;2022-07-24T08:18:04;101600.77;;;27.68;49.41
31331;BME280;34067;39.548;-76.088;2022-07-24T08:20:33;101596.14;;;27.45;49.82
31331;BME280;34067;39.548;-76.088;2022-07-24T08:23:00;101596.26;;;27.55;51.25
31331;BME280;34067;39.548;-76.088;2022-07-24T08:25:29;101597.09;;;27.36;51.45
31331;BME280;34067;39.548;-76.088;2022-07-24T08:27:57;101601.14;;;27.18;50.91
31331;BME280;34067;39.548;-76.088;2022-07-24T08:30:25;101598.73;;;27.29;50.62
31331;BME280;34067;39.548;-76.088;2022-07-24T08:32:53;101598.48;;;27.37;50.70
31331;BME280;34067;39.548;-76.088;2022-07-24T08:35:21;101596.68;;;26.82;50.69
31331;BME280;34067;39.548;-76.088;2022-07-24T08:37:48;101589.38;;;26.49;50.83
31331;BME280;34067;39.548;-76.088;2022-07-24T08:40:16;101590.29;;;26.40;51.07
31331;BME280;34067;39.548;-76.088;2022-07-24T08:42:44;101585.52;;;27.33;50.58
31331;BME280;34067;39.548;-76.088;2022-07-24T08:45:12;101580.75;;;26.95;50.85
31331;BME280;34067;39.548;-76.088;2022-07-24T08:47:40;101579.70;;;27.44;50.96
31331;BME280;34067;39.548;-76.088;2022-07-24T08:50:10;101578.59;;;26.95;50.69
31331;BME280;34067;39.548;-76.088;2022-07-24T08:52:38;101575.41;;;27.48;50.49
31331;BME280;34067;39.548;-76.088;2022-07-24T08:55:07;101573.36;;;27.09;50.95
31331;BME280;34067;39.548;-76.088;2022-07-24T08:57:35;101571.76;;;26.49;51.25
31331;BME280;34067;39.548;-76.088;2022-07-24T09:00:05;101575.21;;;26.81;51.62
31331;BME280;34067;39.548;-76.088;2022-07-24T09:02:33;101575.64;;;26.97;51.18
31331;BME280;34067;39.548;-76.088;2022-07-24T09:05:01;101578.58;;;26.66;52.00
31331;BME280;34067;39.548;-76.088;2022-07-24T09:07:31;101576.92;;;27.04;51.48
31331;BME280;34067;39.548;-76.088;2022-07-24T09:10:01;101585.50;;;27.13;50.38
31331;BME280;34067;39.548;-76.088;2022-07-24T09:12:34;101595.95;;;26.87;50.73
31331;BME280;34067;39.548;-76.088;2022-07-24T09:15:09;101601.63;;;27.67;51.84
31331;BME280;34067;39.548;-76.088;2022-07-24T09:17:48;101599.27;;;26.81;51.84
31331;BME280;34067;39.548;-76.088;2022-07-24T09:20:17;101600.57;;;26.59;52.12
31331;BME280;34067;39.548;-76.088;2022-07-24T09:22:45;101603.37;;;25.99;53.01
31331;BME280;34067;39.548;-76.088;2022-07-24T09:25:15;101601.98;;;25.94;54.31
31331;BME280;34067;39.548;-76.088;2022-07-24T09:27:48;101609.49;;;26.13;55.09
31331;BME280;34067;39.548;-76.088;2022-07-24T09:30:28;101608.59;;;26.11;55.84
31331;BME280;34067;39.548;-76.088;2022-07-24T09:32:59;101602.90;;;26.04;55.55
31331;BME280;34067;39.548;-76.088;2022-07-24T09:35:31;101597.53;;;25.95;60.31
31331;BME280;34067;39.548;-76.088;2022-07-24T09:38:04;101594.04;;;26.51;61.63
31331;BME280;34067;39.548;-76.088;2022-07-24T09:40:34;101597.41;;;26.23;63.00
31331;BME280;34067;39.548;-76.088;2022-07-24T09:43:21;101591.87;;;26.37;61.75
31331;BME280;34067;39.548;-76.088;2022-07-24T09:45:58;101590.00;;;26.52;59.92
31331;BME280;34067;39.548;-76.088;2022-07-24T09:48:28;101597.09;;;26.63;59.37
31331;BME280;34067;39.548;-76.088;2022-07-24T09:50:59;101608.95;;;25.56;62.04
31331;BME280;34067;39.548;-76.088;2022-07-24T09:53:30;101610.80;;;25.85;62.57
31331;BME280;34067;39.548;-76.088;2022-07-24T09:56:02;101606.79;;;25.55;63.48
31331;BME280;34067;39.548;-76.088;2022-07-24T09:58:32;101609.65;;;25.18;63.35
31331;BME280;34067;39.548;-76.088;2022-07-24T10:01:01;101605.82;;;26.13;63.46
31331;BME280;34067;39.548;-76.088;2022-07-24T10:03:30;101610.28;;;26.04;62.26
31331;BME280;34067;39.548;-76.088;2022-07-24T10:06:02;101613.97;;;26.70;61.91
31331;BME280;34067;39.548;-76.088;2022-07-24T10:08:31;101624.47;;;25.32;63.91
31331;BME280;34067;39.548;-76.088;2022-07-24T10:11:01;101626.45;;;24.97;67.29
31331;BME280;34067;39.548;-76.088;2022-07-24T10:13:29;101626.82;;;25.02;65.13
31331;BME280;34067;39.548;-76.088;2022-07-24T10:16:31;101628.83;;;24.43;64.93
31331;BME280;34067;39.548;-76.088;2022-07-24T10:19:00;101617.73;;;25.89;60.25
31331;BME280;34067;39.548;-76.088;2022-07-24T10:21:30;101611.43;;;25.78;59.50
31331;BME280;34067;39.548;-76.088;2022-07-24T10:25:07;101612.67;;;25.33;59.85
31331;BME280;34067;39.548;-76.088;2022-07-24T10:27:37;101619.70;;;26.52;57.94
31331;BME280;34067;39.548;-76.088;2022-07-24T10:30:08;101622.89;;;26.37;57.61
31331;BME280;34067;39.548;-76.088;2022-07-24T10:32:38;101632.37;;;27.36;55.59
31331;BME280;34067;39.548;-76.088;2022-07-24T10:35:13;101637.64;;;26.12;56.45
31331;BME280;34067;39.548;-76.088;2022-07-24T10:37:51;101642.55;;;26.12;56.06
31331;BME280;34067;39.548;-76.088;2022-07-24T10:40:26;101640.58;;;25.57;56.54
31331;BME280;34067;39.548;-76.088;2022-07-24T10:43:14;101641.07;;;25.21;57.33
31331;BME280;34067;39.548;-76.088;2022-07-24T10:45:44;101634.54;;;25.61;56.64
31331;BME280;34067;39.548;-76.088;2022-07-24T10:48:44;101638.32;;;26.51;56.67
31331;BME280;34067;39.548;-76.088;2022-07-24T10:51:13;101640.27;;;25.55;57.72
31331;BME280;34067;39.548;-76.088;2022-07-24T10:53:47;101636.91;;;25.76;58.23
31331;BME280;34067;39.548;-76.088;2022-07-24T10:56:20;101632.09;;;25.93;58.47
31331;BME280;34067;39.548;-76.088;2022-07-24T10:58:55;101631.38;;;25.67;56.74
31331;BME280;34067;39.548;-76.088;2022-07-24T11:01:33;101643.98;;;25.91;57.42
31331;BME280;34067;39.548;-76.088;2022-07-24T11:04:03;101653.46;;;25.97;57.34
31331;BME280;34067;39.548;-76.088;2022-07-24T11:06:41;101656.44;;;25.03;59.41
31331;BME280;34067;39.548;-76.088;2022-07-24T11:09:10;101661.58;;;24.91;60.09
31331;BME280;34067;39.548;-76.088;2022-07-24T11:11:42;101663.73;;;24.66;60.03
31331;BME280;34067;39.548;-76.088;2022-07-24T11:14:11;101664.08;;;25.24;58.68
31331;BME280;34067;39.548;-76.088;2022-07-24T11:16:39;101666.59;;;24.98;59.93
31331;BME280;34067;39.548;-76.088;2022-07-24T11:19:39;101669.91;;;25.31;58.31
31331;BME280;34067;39.548;-76.088;2022-07-24T11:22:10;101665.37;;;26.16;56.38
31331;BME280;34067;39.548;-76.088;2022-07-24T11:25:07;101664.97;;;26.20;54.38
31331;BME280;34067;39.548;-76.088;2022-07-24T11:27:45;101669.75;;;26.11;54.81
31331;BME280;34067;39.548;-76.088;2022-07-24T11:30:14;101679.15;;;24.44;58.23
31331;BME280;34067;39.548;-76.088;2022-07-24T11:32:43;101682.52;;;26.38;56.43
31331;BME280;34067;39.548;-76.088;2022-07-24T11:35:11;101689.97;;;25.21;59.08
31331;BME280;34067;39.548;-76.088;2022-07-24T11:37:41;101689.65;;;25.12;59.49
31331;BME280;34067;39.548;-76.088;2022-07-24T11:40:14;101694.30;;;24.98;58.89
31331;BME280;34067;39.548;-76.088;2022-07-24T11:42:42;101696.07;;;24.73;63.44
31331;BME280;34067;39.548;-76.088;2022-07-24T11:45:11;101696.66;;;24.28;60.47
31331;BME280;34067;39.548;-76.088;2022-07-24T11:47:39;101682.25;;;26.47;56.72
31331;BME280;34067;39.548;-76.088;2022-07-24T11:50:08;101684.23;;;25.64;60.97
31331;BME280;34067;39.548;-76.088;2022-07-24T11:52:37;101682.12;;;25.34;59.70
31331;BME280;34067;39.548;-76.088;2022-07-24T11:55:07;101685.66;;;26.29;62.28
31331;BME280;34067;39.548;-76.088;2022-07-24T11:57:37;101698.06;;;26.17;59.49
31331;BME280;34067;39.548;-76.088;2022-07-24T12:00:08;101713.12;;;25.09;64.38
31331;BME280;34067;39.548;-76.088;2022-07-24T12:02:41;101721.70;;;25.45;64.68
31331;BME280;34067;39.548;-76.088;2022-07-24T12:05:10;101718.27;;;25.69;63.78
31331;BME280;34067;39.548;-76.088;2022-07-24T12:07:38;101714.26;;;26.17;61.24
31331;BME280;34067;39.548;-76.088;2022-07-24T12:10:06;101715.36;;;26.13;61.07
31331;BME280;34067;39.548;-76.088;2022-07-24T12:12:37;101721.88;;;25.90;66.26
31331;BME280;34067;39.548;-76.088;2022-07-24T12:15:07;101734.61;;;25.83;65.19
31331;BME280;34067;39.548;-76.088;2022-07-24T12:17:53;101749.50;;;25.58;68.04
31331;BME280;34067;39.548;-76.088;2022-07-24T12:20:22;101753.23;;;24.31;71.50
31331;BME280;34067;39.548;-76.088;2022-07-24T12:22:52;101752.10;;;24.84;71.80
31331;BME280;34067;39.548;-76.088;2022-07-24T12:25:21;101756.99;;;25.65;70.80
31331;BME280;34067;39.548;-76.088;2022-07-24T12:27:49;101761.43;;;25.08;72.63
31331;BME280;34067;39.548;-76.088;2022-07-24T12:30:21;101765.15;;;26.40;70.56
31331;BME280;34067;39.548;-76.088;2022-07-24T12:32:54;101775.38;;;24.99;73.43
31331;BME280;34067;39.548;-76.088;2022-07-24T12:35:23;101776.85;;;24.59;73.02
31331;BME280;34067;39.548;-76.088;2022-07-24T12:37:51;101775.41;;;25.74;73.26
31331;BME280;34067;39.548;-76.088;2022-07-24T12:40:27;101778.46;;;24.34;76.96
31331;BME280;34067;39.548;-76.088;2022-07-24T12:42:59;101783.14;;;24.84;72.55